sensor_id;sensor_type;location;lat;lon;timestamp;pressure;altitude;pressure_sealevel;temperature;humidity
61554;BME280;47425;51.976;5.326;2023-03-21T00:01:12;101500.41;;;17.54;46.89
61554;BME280;47425;51.976;5.326;2023-03-21T00:03:39;101490.81;;;17.52;47.21
61554;BME280;47425;51.976;5.326;2023-03-21T00:06:08;101494.31;;;17.52;47.05
61554;BME280;47425;51.976;5.326;2023-03-21T00:08:37;101489.88;;;17.53;46.96
61554;BME280;47425;51.976;5.326;2023-03-21T00:11:03;101489.97;;;17.50;47.13
61554;BME280;47425;51.976;5.326;2023-03-21T00:13:30;101488.44;;;17.44;47.26
61554;BME280;47425;51.976;5.326;2023-03-21T00:16:02;101484.88;;;17.45;47.30
61554;BME280;47425;51.976;5.326;2023-03-21T00:18:30;101489.19;;;17.48;47.24
61554;BME280;47425;51.976;5.326;2023-03-21T00:20:57;101483.22;;;17.42;47.38
61554;BME280;47425;51.976;5.326;2023-03-21T00:23:24;101475.03;;;17.49;47.12
61554;BME280;47425;51.976;5.326;2023-03-21T00:25:51;101485.31;;;17.56;47.17
61554;BME280;47425;51.976;5.326;2023-03-21T00:28:19;101474.00;;;17.53;47.19
61554;BME280;47425;51.976;5.326;2023-03-21T00:30:47;101474.16;;;17.48;47.22
61554;BME280;47425;51.976;5.326;2023-03-21T00:33:13;101478.47;;;17.51;47.42
61554;BME280;47425;51.976;5.326;2023-03-21T00:35:42;101476.03;;;17.46;47.31
61554;BME280;47425;51.976;5.326;2023-03-21T00:38:13;101471.50;;;17.48;47.26
61554;BME280;47425;51.976;5.326;2023-03-21T00:40:40;101466.97;;;17.52;47.34
61554;BME280;47425;51.976;5.326;2023-03-21T00:43:08;101468.78;;;17.50;47.28
61554;BME280;47425;51.976;5.326;2023-03-21T00:45:37;101465.22;;;17.51;47.18
61554;BME280;47425;51.976;5.326;2023-03-21T00:48:03;101464.31;;;17.52;47.08
61554;BME280;47425;51.976;5.326;2023-03-21T00:50:30;101464.31;;;17.52;47.46
61554;BME280;47425;51.976;5.326;2023-03-21T00:52:59;101463.47;;;17.51;47.29
61554;BME280;47425;51.976;5.326;2023-03-21T00:55:27;101454.66;;;17.51;47.25
61554;BME280;47425;51.976;5.326;2023-03-21T00:57:53;101456.25;;;17.55;47.28
61554;BME280;47425;51.976;5.326;2023-03-21T01:00:20;101450.03;;;17.56;47.30
61554;BME280;47425;51.976;5.326;2023-03-21T01:02:48;101448.19;;;17.58;47.54
61554;BME280;47425;51.976;5.326;2023-03-21T01:05:22;101451.75;;;17.57;47.27
61554;BME280;47425;51.976;5.326;2023-03-21T01:08:12;101441.94;;;17.59;47.33
61554;BME280;47425;51.976;5.326;2023-03-21T01:10:39;101434.81;;;17.61;47.34
61554;BME280;47425;51.976;5.326;2023-03-21T01:13:08;101432.97;;;17.63;47.12
61554;BME280;47425;51.976;5.326;2023-03-21T01:15:35;101436.63;;;17.60;47.25
61554;BME280;47425;51.976;5.326;2023-03-21T01:18:01;101426.88;;;17.61;47.21
61554;BME280;47425;51.976;5.326;2023-03-21T01:20:28;101433.09;;;17.60;47.21
61554;BME280;47425;51.976;5.326;2023-03-21T01:22:55;101428.78;;;17.57;47.24
61554;BME280;47425;51.976;5.326;2023-03-21T01:25:23;101425.16;;;17.60;47.19
61554;BME280;47425;51.976;5.326;2023-03-21T01:27:50;101433.91;;;17.62;47.36
61554;BME280;47425;51.976;5.326;2023-03-21T01:30:19;101426.63;;;17.67;47.22
61554;BME280;47425;51.976;5.326;2023-03-21T01:32:45;101426.75;;;17.64;47.31
61554;BME280;47425;51.976;5.326;2023-03-21T01:35:11;101422.31;;;17.65;47.29
61554;BME280;47425;51.976;5.326;2023-03-21T01:37:38;101420.75;;;17.59;47.36
61554;BME280;47425;51.976;5.326;2023-03-21T01:40:06;101420.72;;;17.60;47.36
61554;BME280;47425;51.976;5.326;2023-03-21T01:42:42;101419.84;;;17.60;47.48
61554;BME280;47425;51.976;5.326;2023-03-21T01:47:52;101404.94;;;17.57;47.49
61554;BME280;47425;51.976;5.326;2023-03-21T01:50:29;101408.47;;;17.58;47.59
61554;BME280;47425;51.976;5.326;2023-03-21T01:53:15;101408.34;;;17.61;47.40
61554;BME280;47425;51.976;5.326;2023-03-21T01:55:45;101409.25;;;17.60;47.40
61554;BME280;47425;51.976;5.326;2023-03-21T01:58:26;101403.09;;;17.59;47.25
61554;BME280;47425;51.976;5.326;2023-03-21T02:01:03;101394.28;;;17.59;47.42
61554;BME280;47425;51.976;5.326;2023-03-21T02:03:39;101394.03;;;17.65;47.39
61554;BME280;47425;51.976;5.326;2023-03-21T02:06:35;101386.16;;;17.64;47.45
61554;BME280;47425;51.976;5.326;2023-03-21T02:09:14;101383.59;;;17.62;47.32
61554;BME280;47425;51.976;5.326;2023-03-21T02:11:43;101383.50;;;17.64;47.32
61554;BME280;47425;51.976;5.326;2023-03-21T02:14:14;101378.16;;;17.65;47.23
61554;BME280;47425;51.976;5.326;2023-03-21T02:16:54;101379.75;;;17.69;47.24
61554;BME280;47425;51.976;5.326;2023-03-21T02:22:33;101372.66;;;17.70;46.97
61554;BME280;47425;51.976;5.326;2023-03-21T02:25:15;101372.66;;;17.70;47.13
61554;BME280;47425;51.976;5.326;2023-03-21T02:27:48;101370.06;;;17.68;47.30
61554;BME280;47425;51.976;5.326;2023-03-21T02:30:33;101363.84;;;17.69;47.00
61554;BME280;47425;51.976;5.326;2023-03-21T02:33:10;101358.56;;;17.69;47.07
61554;BME280;47425;51.976;5.326;2023-03-21T02:35:53;101363.91;;;17.68;47.07
61554;BME280;47425;51.976;5.326;2023-03-21T02:38:30;101355.84;;;17.71;47.19
61554;BME280;47425;51.976;5.326;2023-03-21T02:41:21;101354.09;;;17.70;47.17
61554;BME280;47425;51.976;5.326;2023-03-21T02:43:52;101352.25;;;17.72;47.09
61554;BME280;47425;51.976;5.326;2023-03-21T02:46:41;101352.34;;;17.70;47.03
61554;BME280;47425;51.976;5.326;2023-03-21T02:49:10;101347.03;;;17.70;47.07
61554;BME280;47425;51.976;5.326;2023-03-21T02:51:40;101355.72;;;17.74;47.13
61554;BME280;47425;51.976;5.326;2023-03-21T02:56:51;101350.34;;;17.75;46.89
61554;BME280;47425;51.976;5.326;2023-03-21T02:59:38;101343.41;;;17.73;47.05
61554;BME280;47425;51.976;5.326;2023-03-21T03:02:14;101339.84;;;17.74;47.06
61554;BME280;47425;51.976;5.326;2023-03-21T03:04:42;101341.75;;;17.70;46.97
61554;BME280;47425;51.976;5.326;2023-03-21T03:07:12;101333.72;;;17.72;46.91
61554;BME280;47425;51.976;5.326;2023-03-21T03:09:50;101342.59;;;17.71;46.92
61554;BME280;47425;51.976;5.326;2023-03-21T03:12:26;101345.25;;;17.71;46.95
61554;BME280;47425;51.976;5.326;2023-03-21T03:14:59;101342.59;;;17.71;47.20
61554;BME280;47425;51.976;5.326;2023-03-21T03:17:37;101347.88;;;17.71;47.12
61554;BME280;47425;51.976;5.326;2023-03-21T03:20:19;101336.31;;;17.73;47.02
61554;BME280;47425;51.976;5.326;2023-03-21T03:22:52;101335.53;;;17.71;47.09
61554;BME280;47425;51.976;5.326;2023-03-21T03:25:23;101336.63;;;17.66;47.08
61554;BME280;47425;51.976;5.326;2023-03-21T03:27:54;101335.91;;;17.62;47.27
61554;BME280;47425;51.976;5.326;2023-03-21T03:30:23;101330.34;;;17.68;47.24
61554;BME280;47425;51.976;5.326;2023-03-21T03:32:52;101334.03;;;17.64;47.16
61554;BME280;47425;51.976;5.326;2023-03-21T03:35:22;101327.91;;;17.64;47.21
61554;BME280;47425;51.976;5.326;2023-03-21T03:37:50;101325.19;;;17.65;47.18
61554;BME280;47425;51.976;5.326;2023-03-21T03:40:19;101328.63;;;17.67;47.33
61554;BME280;47425;51.976;5.326;2023-03-21T03:43:02;101324.94;;;17.71;47.17
61554;BME280;47425;51.976;5.326;2023-03-21T03:45:36;101327.44;;;17.74;47.10
61554;BME280;47425;51.976;5.326;2023-03-21T03:48:05;101320.34;;;17.75;46.98
61554;BME280;47425;51.976;5.326;2023-03-21T03:50:37;101322.91;;;17.76;46.98
61554;BME280;47425;51.976;5.326;2023-03-21T03:53:10;101321.22;;;17.75;47.05
61554;BME280;47425;51.976;5.326;2023-03-21T03:55:37;101317.75;;;17.73;46.92
61554;BME280;47425;51.976;5.326;2023-03-21T03:58:11;101315.09;;;17.73;47.21
61554;BME280;47425;51.976;5.326;2023-03-21T04:00:40;101319.56;;;17.73;46.92
61554;BME280;47425;51.976;5.326;2023-03-21T04:03:06;101313.38;;;17.72;46.85
61554;BME280;47425;51.976;5.326;2023-03-21T04:05:35;101310.72;;;17.72;47.09
61554;BME280;47425;51.976;5.326;2023-03-21T04:08:02;101308.97;;;17.73;46.88
61554;BME280;47425;51.976;5.326;2023-03-21T04:10:37;101309.88;;;17.72;47.01
61554;BME280;47425;51.976;5.326;2023-03-21T04:13:04;101307.16;;;17.73;47.07
61554;BME280;47425;51.976;5.326;2023-03-21T04:15:44;101302.94;;;17.69;47.09
61554;BME280;47425;51.976;5.326;2023-03-21T04:18:14;101302.06;;;17.69;47.17
61554;BME280;47425;51.976;5.326;2023-03-21T04:20:41;101298.53;;;17.68;47.16
61554;BME280;47425;51.976;5.326;2023-03-21T04:23:09;101301.19;;;17.68;47.15
61554;BME280;47425;51.976;5.326;2023-03-21T04:25:42;101302.16;;;17.67;47.19
61554;BME280;47425;51.976;5.326;2023-03-21T04:28:10;101304.97;;;17.63;47.21
61554;BME280;47425;51.976;5.326;2023-03-21T04:30:50;101299.69;;;17.63;47.53
61554;BME280;47425;51.976;5.326;2023-03-21T04:33:19;101300.41;;;17.66;47.22
61554;BME280;47425;51.976;5.326;2023-03-21T04:35:54;101287.94;;;17.68;47.14
61554;BME280;47425;51.976;5.326;2023-03-21T04:38:24;101295.91;;;17.68;47.05
61554;BME280;47425;51.976;5.326;2023-03-21T04:40:59;101288.91;;;17.67;47.12
61554;BME280;47425;51.976;5.326;2023-03-21T04:43:28;101284.59;;;17.65;47.21
61554;BME280;47425;51.976;5.326;2023-03-21T04:45:56;101281.94;;;17.65;47.31
61554;BME280;47425;51.976;5.326;2023-03-21T04:48:23;101278.56;;;17.61;47.36
61554;BME280;47425;51.976;5.326;2023-03-21T04:50:50;101274.25;;;17.58;47.61
61554;BME280;47425;51.976;5.326;2023-03-21T04:53:18;101269.88;;;17.57;47.38
61554;BME280;47425;51.976;5.326;2023-03-21T04:55:45;101274.31;;;17.57;47.38
61554;BME280;47425;51.976;5.326;2023-03-21T04:58:13;101277.91;;;17.56;47.51
61554;BME280;47425;51.976;5.326;2023-03-21T05:00:41;101282.19;;;17.58;47.60
61554;BME280;47425;51.976;5.326;2023-03-21T05:03:11;101277.75;;;17.59;47.35
61554;BME280;47425;51.976;5.326;2023-03-21T05:05:46;101276.69;;;17.63;47.39
61554;BME280;47425;51.976;5.326;2023-03-21T05:08:13;101273.00;;;17.67;47.43
61554;BME280;47425;51.976;5.326;2023-03-21T05:10:41;101277.28;;;17.70;47.24
61554;BME280;47425;51.976;5.326;2023-03-21T05:13:10;101274.63;;;17.70;47.15
61554;BME280;47425;51.976;5.326;2023-03-21T05:15:37;101275.53;;;17.70;47.09
61554;BME280;47425;51.976;5.326;2023-03-21T05:18:03;101263.94;;;17.73;47.08
61554;BME280;47425;51.976;5.326;2023-03-21T05:20:48;101259.47;;;17.73;47.27
61554;BME280;47425;51.976;5.326;2023-03-21T05:23:19;101264.78;;;17.73;47.05
61554;BME280;47425;51.976;5.326;2023-03-21T05:25:46;101260.38;;;17.74;46.91
61554;BME280;47425;51.976;5.326;2023-03-21T05:28:16;101262.13;;;17.73;46.90
61554;BME280;47425;51.976;5.326;2023-03-21T05:30:44;101256.84;;;17.73;46.92
61554;BME280;47425;51.976;5.326;2023-03-21T05:33:31;101267.34;;;17.75;47.03
61554;BME280;47425;51.976;5.326;2023-03-21T05:36:00;101254.91;;;17.77;46.94
61554;BME280;47425;51.976;5.326;2023-03-21T05:38:29;101255.78;;;17.77;46.98
61554;BME280;47425;51.976;5.326;2023-03-21T05:40:58;101247.81;;;17.77;46.70
61554;BME280;47425;51.976;5.326;2023-03-21T05:43:25;101248.69;;;17.78;46.82
61554;BME280;47425;51.976;5.326;2023-03-21T05:45:53;101255.78;;;17.77;46.82
61554;BME280;47425;51.976;5.326;2023-03-21T05:48:20;101252.28;;;17.77;46.92
61554;BME280;47425;51.976;5.326;2023-03-21T05:51:00;101257.50;;;17.78;46.75
61554;BME280;47425;51.976;5.326;2023-03-21T05:53:26;101249.56;;;17.78;46.90
61554;BME280;47425;51.976;5.326;2023-03-21T05:55:55;101254.84;;;17.78;46.66
61554;BME280;47425;51.976;5.326;2023-03-21T05:58:38;101254.00;;;17.78;46.85
61554;BME280;47425;51.976;5.326;2023-03-21T06:01:05;101256.66;;;17.78;46.89
61554;BME280;47425;51.976;5.326;2023-03-21T06:03:33;101253.94;;;17.80;46.76
61554;BME280;47425;51.976;5.326;2023-03-21T06:06:16;101245.16;;;17.77;46.74
61554;BME280;47425;51.976;5.326;2023-03-21T06:08:51;101245.16;;;17.77;46.74
61554;BME280;47425;51.976;5.326;2023-03-21T06:11:19;101243.53;;;17.75;46.83
61554;BME280;47425;51.976;5.326;2023-03-21T06:13:51;101252.34;;;17.75;46.75
61554;BME280;47425;51.976;5.326;2023-03-21T06:16:20;101245.25;;;17.76;46.97
61554;BME280;47425;51.976;5.326;2023-03-21T06:18:46;101246.97;;;17.77;46.92
61554;BME280;47425;51.976;5.326;2023-03-21T06:21:25;101246.91;;;17.78;46.85
61554;BME280;47425;51.976;5.326;2023-03-21T06:23:53;101245.09;;;17.79;46.83
61554;BME280;47425;51.976;5.326;2023-03-21T06:26:21;101249.47;;;17.80;46.79
61554;BME280;47425;51.976;5.326;2023-03-21T06:28:48;101251.22;;;17.81;46.89
61554;BME280;47425;51.976;5.326;2023-03-21T06:31:16;101248.56;;;17.81;46.69
61554;BME280;47425;51.976;5.326;2023-03-21T06:33:43;101251.22;;;17.81;46.76
61554;BME280;47425;51.976;5.326;2023-03-21T06:36:09;101259.16;;;17.81;46.89
61554;BME280;47425;51.976;5.326;2023-03-21T06:38:39;101260.00;;;17.82;46.79
61554;BME280;47425;51.976;5.326;2023-03-21T06:41:06;101257.44;;;17.80;46.82
61554;BME280;47425;51.976;5.326;2023-03-21T06:43:39;101260.06;;;17.80;46.67
61554;BME280;47425;51.976;5.326;2023-03-21T06:46:06;101264.53;;;17.80;46.70
61554;BME280;47425;51.976;5.326;2023-03-21T06:48:34;101261.88;;;17.80;46.73
61554;BME280;47425;51.976;5.326;2023-03-21T06:51:01;101254.91;;;17.77;46.56
61554;BME280;47425;51.976;5.326;2023-03-21T06:53:29;101258.50;;;17.76;46.83
61554;BME280;47425;51.976;5.326;2023-03-21T06:56:27;101256.75;;;17.75;46.89
61554;BME280;47425;51.976;5.326;2023-03-21T06:58:55;101256.66;;;17.78;46.71
61554;BME280;47425;51.976;5.326;2023-03-21T07:01:44;101240.75;;;17.78;46.69
61554;BME280;47425;51.976;5.326;2023-03-21T07:04:11;101259.34;;;17.76;46.59
61554;BME280;47425;51.976;5.326;2023-03-21T07:06:38;101254.84;;;17.78;46.97
61554;BME280;47425;51.976;5.326;2023-03-21T07:09:05;101260.06;;;17.80;46.88
61554;BME280;47425;51.976;5.326;2023-03-21T07:11:33;101259.16;;;17.81;47.15
61554;BME280;47425;51.976;5.326;2023-03-21T07:14:02;101256.34;;;17.84;46.53
61554;BME280;47425;51.976;5.326;2023-03-21T07:16:29;101257.28;;;17.83;46.71
61554;BME280;47425;51.976;5.326;2023-03-21T07:18:55;101262.66;;;17.82;46.64
61554;BME280;47425;51.976;5.326;2023-03-21T07:21:23;101266.38;;;17.77;46.98
61554;BME280;47425;51.976;5.326;2023-03-21T07:23:49;101273.38;;;17.78;47.36
61554;BME280;47425;51.976;5.326;2023-03-21T07:26:16;101273.53;;;17.75;47.41
61554;BME280;47425;51.976;5.326;2023-03-21T07:28:44;101275.22;;;17.76;47.61
61554;BME280;47425;51.976;5.326;2023-03-21T07:31:11;101272.53;;;17.78;47.64
61554;BME280;47425;51.976;5.326;2023-03-21T07:33:39;101272.47;;;17.80;47.86
61554;BME280;47425;51.976;5.326;2023-03-21T07:36:08;101275.13;;;17.80;47.62
61554;BME280;47425;51.976;5.326;2023-03-21T07:38:34;101269.22;;;17.73;48.04
61554;BME280;47425;51.976;5.326;2023-03-21T07:41:03;101267.44;;;17.73;48.19
61554;BME280;47425;51.976;5.326;2023-03-21T07:43:31;101262.06;;;17.75;48.49
61554;BME280;47425;51.976;5.326;2023-03-21T07:45:59;101251.38;;;17.76;48.28
61554;BME280;47425;51.976;5.326;2023-03-21T07:48:26;101252.34;;;17.75;48.52
61554;BME280;47425;51.976;5.326;2023-03-21T07:50:54;101243.41;;;17.78;48.44
61554;BME280;47425;51.976;5.326;2023-03-21T07:53:20;101242.34;;;17.82;48.39
61554;BME280;47425;51.976;5.326;2023-03-21T07:55:48;101242.19;;;17.85;48.21
61554;BME280;47425;51.976;5.326;2023-03-21T07:58:14;101245.75;;;17.84;48.38
61554;BME280;47425;51.976;5.326;2023-03-21T08:00:42;101240.53;;;17.83;48.46
61554;BME280;47425;51.976;5.326;2023-03-21T08:03:10;101238.72;;;17.83;48.56
61554;BME280;47425;51.976;5.326;2023-03-21T08:05:37;101239.69;;;17.82;48.62
61554;BME280;47425;51.976;5.326;2023-03-21T08:08:05;101237.03;;;17.82;48.76
61554;BME280;47425;51.976;5.326;2023-03-21T08:10:32;101241.34;;;17.85;48.95
61554;BME280;47425;51.976;5.326;2023-03-21T08:12:58;101244.75;;;17.87;48.66
61554;BME280;47425;51.976;5.326;2023-03-21T08:15:25;101244.84;;;17.85;48.75
61554;BME280;47425;51.976;5.326;2023-03-21T08:17:52;101232.59;;;17.83;48.95
61554;BME280;47425;51.976;5.326;2023-03-21T08:20:21;101229.00;;;17.84;48.85
61554;BME280;47425;51.976;5.326;2023-03-21T08:22:48;101221.06;;;17.84;48.98
61554;BME280;47425;51.976;5.326;2023-03-21T08:25:15;101232.50;;;17.84;48.84
61554;BME280;47425;51.976;5.326;2023-03-21T08:28:02;101221.78;;;17.87;48.77
61554;BME280;47425;51.976;5.326;2023-03-21T08:30:28;101226.94;;;17.90;49.13
61554;BME280;47425;51.976;5.326;2023-03-21T08:32:55;101224.31;;;17.90;48.50
61554;BME280;47425;51.976;5.326;2023-03-21T08:35:44;101223.50;;;17.88;48.78
61554;BME280;47425;51.976;5.326;2023-03-21T08:38:11;101212.91;;;17.88;48.88
61554;BME280;47425;51.976;5.326;2023-03-21T08:40:38;101212.75;;;17.93;48.82
61554;BME280;47425;51.976;5.326;2023-03-21T08:43:05;101214.25;;;17.99;48.67
61554;BME280;47425;51.976;5.326;2023-03-21T08:45:33;101208.09;;;17.98;48.73
61554;BME280;47425;51.976;5.326;2023-03-21T08:47:59;101210.75;;;17.98;48.46
61554;BME280;47425;51.976;5.326;2023-03-21T08:50:26;101213.25;;;18.01;48.72
61554;BME280;47425;51.976;5.326;2023-03-21T08:52:57;101206.88;;;18.05;48.56
61554;BME280;47425;51.976;5.326;2023-03-21T08:55:24;101206.88;;;18.05;48.69
61554;BME280;47425;51.976;5.326;2023-03-21T08:57:51;101206.78;;;18.07;48.21
61554;BME280;47425;51.976;5.326;2023-03-21T09:00:17;101197.13;;;18.06;48.57
61554;BME280;47425;51.976;5.326;2023-03-21T09:03:04;101197.03;;;18.07;48.48
61554;BME280;47425;51.976;5.326;2023-03-21T09:05:32;101199.69;;;18.07;48.39
61554;BME280;47425;51.976;5.326;2023-03-21T09:08:02;101193.47;;;18.08;48.63
61554;BME280;47425;51.976;5.326;2023-03-21T09:10:28;101186.41;;;18.09;48.48
61554;BME280;47425;51.976;5.326;2023-03-21T09:12:56;101182.03;;;18.08;48.57
61554;BME280;47425;51.976;5.326;2023-03-21T09:15:23;101183.75;;;18.09;48.61
61554;BME280;47425;51.976;5.326;2023-03-21T09:17:49;101182.75;;;18.11;48.61
61554;BME280;47425;51.976;5.326;2023-03-21T09:20:18;101180.94;;;18.12;48.36
61554;BME280;47425;51.976;5.326;2023-03-21T09:22:47;101176.72;;;18.08;48.36
61554;BME280;47425;51.976;5.326;2023-03-21T09:25:15;101175.00;;;18.07;48.49
61554;BME280;47425;51.976;5.326;2023-03-21T09:27:43;101170.50;;;18.09;48.52
61554;BME280;47425;51.976;5.326;2023-03-21T09:30:11;101172.28;;;18.08;48.36
61554;BME280;47425;51.976;5.326;2023-03-21T09:32:38;101166.97;;;18.08;48.53
61554;BME280;47425;51.976;5.326;2023-03-21T09:35:04;101165.25;;;18.07;48.53
61554;BME280;47425;51.976;5.326;2023-03-21T09:37:32;101156.28;;;18.10;48.42
61554;BME280;47425;51.976;5.326;2023-03-21T09:40:04;101152.72;;;18.11;48.38
61554;BME280;47425;51.976;5.326;2023-03-21T09:42:36;101155.38;;;18.11;48.57
61554;BME280;47425;51.976;5.326;2023-03-21T09:45:07;101152.72;;;18.11;48.70
61554;BME280;47425;51.976;5.326;2023-03-21T09:47:38;101154.59;;;18.09;48.67
61554;BME280;47425;51.976;5.326;2023-03-21T09:50:11;101150.28;;;18.06;48.51
61554;BME280;47425;51.976;5.326;2023-03-21T09:52:43;101152.94;;;18.06;48.64
61554;BME280;47425;51.976;5.326;2023-03-21T09:55:13;101150.22;;;18.08;48.71
61554;BME280;47425;51.976;5.326;2023-03-21T09:57:45;101150.94;;;18.11;48.64
61554;BME280;47425;51.976;5.326;2023-03-21T10:00:14;101142.13;;;18.11;48.34
61554;BME280;47425;51.976;5.326;2023-03-21T10:02:45;101149.13;;;18.12;48.54
61554;BME280;47425;51.976;5.326;2023-03-21T10:05:16;101148.91;;;18.17;48.37
61554;BME280;47425;51.976;5.326;2023-03-21T10:07:44;101137.13;;;18.05;48.20
61554;BME280;47425;51.976;5.326;2023-03-21T10:10:13;101148.22;;;18.13;48.46
61554;BME280;47425;51.976;5.326;2023-03-21T10:12:42;101152.44;;;18.17;48.41
61554;BME280;47425;51.976;5.326;2023-03-21T10:15:13;101161.53;;;18.11;48.53
61554;BME280;47425;51.976;5.326;2023-03-21T10:17:42;101159.66;;;18.14;48.48
61554;BME280;47425;51.976;5.326;2023-03-21T10:20:11;101152.63;;;18.13;48.37
61554;BME280;47425;51.976;5.326;2023-03-21T10:22:40;101143.91;;;18.10;48.44
61554;BME280;47425;51.976;5.326;2023-03-21T10:25:10;101148.91;;;18.17;48.23
61554;BME280;47425;51.976;5.326;2023-03-21T10:27:39;101149.63;;;18.20;48.11
61554;BME280;47425;51.976;5.326;2023-03-21T10:30:07;101143.47;;;18.20;48.08
61554;BME280;47425;51.976;5.326;2023-03-21T10:32:36;101141.84;;;18.17;48.15
61554;BME280;47425;51.976;5.326;2023-03-21T10:35:03;101135.59;;;18.18;48.00
61554;BME280;47425;51.976;5.326;2023-03-21T10:37:29;101137.38;;;18.18;47.96
61554;BME280;47425;51.976;5.326;2023-03-21T10:39:57;101125.78;;;18.20;48.18
61554;BME280;47425;51.976;5.326;2023-03-21T10:42:25;101127.50;;;18.21;48.04
61554;BME280;47425;51.976;5.326;2023-03-21T10:44:52;101142.88;;;18.32;47.87
61554;BME280;47425;51.976;5.326;2023-03-21T10:47:22;101141.00;;;18.34;47.84
61554;BME280;47425;51.976;5.326;2023-03-21T10:49:51;101132.19;;;18.34;47.75
61554;BME280;47425;51.976;5.326;2023-03-21T10:52:18;101139.44;;;18.30;47.73
61554;BME280;47425;51.976;5.326;2023-03-21T10:54:45;101144.47;;;18.36;47.60
61554;BME280;47425;51.976;5.326;2023-03-21T10:57:14;101144.47;;;18.36;47.80
61554;BME280;47425;51.976;5.326;2023-03-21T10:59:42;101137.22;;;18.40;47.05
61554;BME280;47425;51.976;5.326;2023-03-21T11:02:13;101129.25;;;18.40;47.54
61554;BME280;47425;51.976;5.326;2023-03-21T11:04:43;101128.53;;;18.36;47.55
61554;BME280;47425;51.976;5.326;2023-03-21T11:07:11;101132.34;;;18.31;47.54
61554;BME280;47425;51.976;5.326;2023-03-21T11:09:53;101132.34;;;18.31;47.51
61554;BME280;47425;51.976;5.326;2023-03-21T11:12:27;101124.09;;;18.37;47.43
61554;BME280;47425;51.976;5.326;2023-03-21T11:14:55;101129.31;;;18.38;47.54
61554;BME280;47425;51.976;5.326;2023-03-21T11:17:22;101129.31;;;18.38;47.41
61554;BME280;47425;51.976;5.326;2023-03-21T11:19:50;101132.59;;;18.43;47.17
61554;BME280;47425;51.976;5.326;2023-03-21T11:22:20;101124.44;;;18.48;47.00
61554;BME280;47425;51.976;5.326;2023-03-21T11:24:48;101124.44;;;18.48;47.32
61554;BME280;47425;51.976;5.326;2023-03-21T11:27:15;101118.97;;;18.51;47.17
61554;BME280;47425;51.976;5.326;2023-03-21T11:29:44;101115.06;;;18.58;47.04
61554;BME280;47425;51.976;5.326;2023-03-21T11:32:32;101104.63;;;18.55;46.78
61554;BME280;47425;51.976;5.326;2023-03-21T11:34:59;101106.28;;;18.58;46.74
61554;BME280;47425;51.976;5.326;2023-03-21T11:37:30;101109.09;;;18.55;46.95
61554;BME280;47425;51.976;5.326;2023-03-21T11:40:04;101099.03;;;18.61;46.71
61554;BME280;47425;51.976;5.326;2023-03-21T11:42:38;101093.63;;;18.63;46.53
61554;BME280;47425;51.976;5.326;2023-03-21T11:45:09;101091.63;;;18.68;46.46
61554;BME280;47425;51.976;5.326;2023-03-21T11:47:36;101098.56;;;18.71;46.55
61554;BME280;47425;51.976;5.326;2023-03-21T11:50:12;101104.09;;;18.66;46.51
61554;BME280;47425;51.976;5.326;2023-03-21T11:52:45;101107.44;;;18.52;46.87
61554;BME280;47425;51.976;5.326;2023-03-21T11:55:22;101097.03;;;18.48;46.76
61554;BME280;47425;51.976;5.326;2023-03-21T11:57:54;101098.00;;;18.47;46.75
61554;BME280;47425;51.976;5.326;2023-03-21T12:00:24;101094.56;;;18.44;46.84
61554;BME280;47425;51.976;5.326;2023-03-21T12:03:09;101093.63;;;18.45;46.92
61554;BME280;47425;51.976;5.326;2023-03-21T12:05:42;101102.59;;;18.43;46.78
61554;BME280;47425;51.976;5.326;2023-03-21T12:08:19;101088.69;;;18.38;47.14
61554;BME280;47425;51.976;5.326;2023-03-21T12:10:50;101096.56;;;18.39;47.11
61554;BME280;47425;51.976;5.326;2023-03-21T12:13:28;101083.31;;;18.39;47.11
61554;BME280;47425;51.976;5.326;2023-03-21T12:16:04;101081.44;;;18.41;46.92
61554;BME280;47425;51.976;5.326;2023-03-21T12:18:43;101074.34;;;18.42;46.75
61554;BME280;47425;51.976;5.326;2023-03-21T12:21:14;101076.16;;;18.41;46.96
61554;BME280;47425;51.976;5.326;2023-03-21T12:23:48;101073.59;;;18.40;46.96
61554;BME280;47425;51.976;5.326;2023-03-21T12:26:21;101072.03;;;18.36;46.82
61554;BME280;47425;51.976;5.326;2023-03-21T12:28:56;101081.91;;;18.32;47.12
61554;BME280;47425;51.976;5.326;2023-03-21T12:31:27;101076.13;;;18.24;47.28
61554;BME280;47425;51.976;5.326;2023-03-21T12:39:29;101062.31;;;18.17;47.19
61554;BME280;47425;51.976;5.326;2023-03-21T12:41:59;101054.13;;;18.22;47.11
61554;BME280;47425;51.976;5.326;2023-03-21T12:44:31;101059.50;;;18.20;47.25
61554;BME280;47425;51.976;5.326;2023-03-21T12:46:59;101050.94;;;18.33;47.18
61554;BME280;47425;51.976;5.326;2023-03-21T12:49:28;101050.31;;;18.45;46.78
61554;BME280;47425;51.976;5.326;2023-03-21T12:51:57;101044.34;;;18.59;46.60
61554;BME280;47425;51.976;5.326;2023-03-21T12:54:27;101040.28;;;18.69;46.25
61554;BME280;47425;51.976;5.326;2023-03-21T12:57:00;101046.75;;;18.64;46.33
61554;BME280;47425;51.976;5.326;2023-03-21T12:59:32;101035.13;;;18.66;46.34
61554;BME280;47425;51.976;5.326;2023-03-21T13:02:04;101028.41;;;18.76;46.19
61554;BME280;47425;51.976;5.326;2023-03-21T13:04:41;101035.91;;;18.86;45.97
61554;BME280;47425;51.976;5.326;2023-03-21T13:07:11;101028.25;;;18.79;46.07
61554;BME280;47425;51.976;5.326;2023-03-21T13:09:42;101032.34;;;18.69;46.66
61554;BME280;47425;51.976;5.326;2023-03-21T13:12:15;101032.34;;;18.69;46.29
61554;BME280;47425;51.976;5.326;2023-03-21T13:14:49;101025.84;;;18.75;46.06
61554;BME280;47425;51.976;5.326;2023-03-21T13:17:20;101020.53;;;18.75;46.04
61554;BME280;47425;51.976;5.326;2023-03-21T13:19:52;101026.59;;;18.77;46.20
61554;BME280;47425;51.976;5.326;2023-03-21T13:22:23;101013.34;;;18.77;45.78